sensor_id;sensor_type;location;lat;lon;timestamp;P1;durP1;ratioP1;P2;durP2;ratioP2
51066;SDS011;37112;45.892;-123.962;2023-04-01T00:02:03;9.50;;;1.80;;
51066;SDS011;37112;45.892;-123.962;2023-04-01T00:04:13;6.80;;;2.40;;
51066;SDS011;37112;45.892;-123.962;2023-04-01T00:06:23;7.90;;;2.00;;
51066;SDS011;37112;45.892;-123.962;2023-04-01T00:08:33;10.90;;;2.00;;
51066;SDS011;37112;45.892;-123.962;2023-04-01T00:10:43;6.10;;;1.00;;
51066;SDS011;37112;45.892;-123.962;2023-04-01T00:12:53;14.40;;;1.90;;
51066;SDS011;37112;45.892;-123.962;2023-04-01T00:15:03;9.50;;;1.60;;
51066;SDS011;37112;45.892;-123.962;2023-04-01T00:17:16;8.00;;;1.50;;
51066;SDS011;37112;45.892;-123.962;2023-04-01T00:19:28;14.80;;;1.90;;
51066;SDS011;37112;45.892;-123.962;2023-04-01T00:21:39;3.70;;;1.70;;
51066;SDS011;37112;45.892;-123.962;2023-04-01T00:23:48;8.80;;;1.50;;
51066;SDS011;37112;45.892;-123.962;2023-04-01T00:26:00;5.20;;;1.40;;
51066;SDS011;37112;45.892;-123.962;2023-04-01T00:28:10;10.10;;;2.20;;
51066;SDS011;37112;45.892;-123.962;2023-04-01T00:30:20;5.00;;;1.30;;
51066;SDS011;37112;45.892;-123.962;2023-04-01T00:32:30;15.60;;;3.30;;
51066;SDS011;37112;45.892;-123.962;2023-04-01T00:34:40;23.20;;;4.40;;
51066;SDS011;37112;45.892;-123.962;2023-04-01T00:36:50;38.50;;;4.60;;
51066;SDS011;37112;45.892;-123.962;2023-04-01T00:39:01;10.30;;;2.70;;
51066;SDS011;37112;45.892;-123.962;2023-04-01T00:41:11;26.60;;;6.10;;
51066;SDS011;37112;45.892;-123.962;2023-04-01T00:43:22;7.50;;;1.80;;
51066;SDS011;37112;45.892;-123.962;2023-04-01T00:45:34;19.20;;;4.70;;
51066;SDS011;37112;45.892;-123.962;2023-04-01T00:47:45;17.20;;;3.10;;
51066;SDS011;37112;45.892;-123.962;2023-04-01T00:49:55;17.20;;;2.40;;
51066;SDS011;37112;45.892;-123.962;2023-04-01T00:52:07;12.00;;;1.50;;
51066;SDS011;37112;45.892;-123.962;2023-04-01T00:54:19;9.60;;;3.00;;
51066;SDS011;37112;45.892;-123.962;2023-04-01T00:56:32;7.30;;;1.80;;
51066;SDS011;37112;45.892;-123.962;2023-04-01T00:58:46;3.10;;;0.80;;
51066;SDS011;37112;45.892;-123.962;2023-04-01T01:00:59;5.20;;;1.00;;
51066;SDS011;37112;45.892;-123.962;2023-04-01T01:03:09;10.90;;;2.00;;
51066;SDS011;37112;45.892;-123.962;2023-04-01T01:05:19;7.00;;;1.40;;
51066;SDS011;37112;45.892;-123.962;2023-04-01T01:07:47;9.90;;;1.20;;
51066;SDS011;37112;45.892;-123.962;2023-04-01T01:10:06;11.50;;;1.80;;
51066;SDS011;37112;45.892;-123.962;2023-04-01T01:12:24;10.50;;;1.70;;
51066;SDS011;37112;45.892;-123.962;2023-04-01T01:14:40;7.30;;;1.30;;
51066;SDS011;37112;45.892;-123.962;2023-04-01T01:17:02;4.90;;;1.00;;
51066;SDS011;37112;45.892;-123.962;2023-04-01T01:19:23;5.10;;;1.10;;
51066;SDS011;37112;45.892;-123.962;2023-04-01T01:21:58;3.60;;;0.70;;
51066;SDS011;37112;45.892;-123.962;2023-04-01T01:24:31;8.30;;;1.30;;
51066;SDS011;37112;45.892;-123.962;2023-04-01T01:27:01;7.40;;;2.80;;
51066;SDS011;37112;45.892;-123.962;2023-04-01T01:29:16;14.60;;;1.60;;
51066;SDS011;37112;45.892;-123.962;2023-04-01T01:31:54;3.00;;;1.00;;
51066;SDS011;37112;45.892;-123.962;2023-04-01T01:34:13;5.00;;;0.80;;
51066;SDS011;37112;45.892;-123.962;2023-04-01T01:36:31;1.40;;;0.60;;
51066;SDS011;37112;45.892;-123.962;2023-04-01T01:38:44;2.70;;;0.80;;
51066;SDS011;37112;45.892;-123.962;2023-04-01T01:40:57;2.00;;;1.00;;
51066;SDS011;37112;45.892;-123.962;2023-04-01T01:45:20;4.70;;;1.30;;
51066;SDS011;37112;45.892;-123.962;2023-04-01T01:47:32;3.30;;;1.10;;
51066;SDS011;37112;45.892;-123.962;2023-04-01T01:49:43;5.90;;;0.80;;
51066;SDS011;37112;45.892;-123.962;2023-04-01T01:51:54;6.60;;;2.30;;
51066;SDS011;37112;45.892;-123.962;2023-04-01T01:54:04;6.00;;;0.80;;
51066;SDS011;37112;45.892;-123.962;2023-04-01T01:56:14;7.20;;;1.50;;
51066;SDS011;37112;45.892;-123.962;2023-04-01T01:58:30;7.10;;;1.10;;
51066;SDS011;37112;45.892;-123.962;2023-04-01T02:00:50;5.40;;;0.90;;
51066;SDS011;37112;45.892;-123.962;2023-04-01T02:03:02;6.70;;;1.20;;
51066;SDS011;37112;45.892;-123.962;2023-04-01T02:05:14;5.90;;;1.50;;
51066;SDS011;37112;45.892;-123.962;2023-04-01T02:07:27;2.50;;;0.80;;
51066;SDS011;37112;45.892;-123.962;2023-04-01T02:09:40;7.30;;;1.60;;
51066;SDS011;37112;45.892;-123.962;2023-04-01T02:11:51;11.90;;;2.10;;
51066;SDS011;37112;45.892;-123.962;2023-04-01T02:14:04;7.90;;;1.30;;
51066;SDS011;37112;45.892;-123.962;2023-04-01T02:16:18;7.60;;;2.40;;
51066;SDS011;37112;45.892;-123.962;2023-04-01T02:18:36;4.40;;;0.90;;
51066;SDS011;37112;45.892;-123.962;2023-04-01T02:20:48;5.00;;;2.00;;
51066;SDS011;37112;45.892;-123.962;2023-04-01T02:22:59;9.10;;;0.90;;
51066;SDS011;37112;45.892;-123.962;2023-04-01T02:25:10;13.00;;;1.70;;
51066;SDS011;37112;45.892;-123.962;2023-04-01T02:27:24;6.80;;;1.40;;
51066;SDS011;37112;45.892;-123.962;2023-04-01T02:29:34;19.70;;;2.00;;
51066;SDS011;37112;45.892;-123.962;2023-04-01T02:31:45;15.20;;;2.30;;
51066;SDS011;37112;45.892;-123.962;2023-04-01T02:33:56;13.10;;;2.20;;
51066;SDS011;37112;45.892;-123.962;2023-04-01T02:36:07;17.90;;;2.50;;
51066;SDS011;37112;45.892;-123.962;2023-04-01T02:38:20;13.80;;;2.90;;
51066;SDS011;37112;45.892;-123.962;2023-04-01T02:40:39;15.80;;;4.50;;
51066;SDS011;37112;45.892;-123.962;2023-04-01T02:42:53;5.70;;;1.90;;
51066;SDS011;37112;45.892;-123.962;2023-04-01T02:45:03;14.40;;;4.40;;
51066;SDS011;37112;45.892;-123.962;2023-04-01T02:47:15;15.80;;;3.10;;
51066;SDS011;37112;45.892;-123.962;2023-04-01T02:49:25;10.30;;;2.70;;
51066;SDS011;37112;45.892;-123.962;2023-04-01T02:51:34;21.40;;;4.30;;
51066;SDS011;37112;45.892;-123.962;2023-04-01T02:53:45;25.00;;;3.30;;
51066;SDS011;37112;45.892;-123.962;2023-04-01T02:55:55;26.30;;;3.90;;
51066;SDS011;37112;45.892;-123.962;2023-04-01T02:58:05;30.40;;;4.80;;
51066;SDS011;37112;45.892;-123.962;2023-04-01T03:00:16;18.20;;;3.40;;
51066;SDS011;37112;45.892;-123.962;2023-04-01T03:02:26;28.80;;;4.50;;
51066;SDS011;37112;45.892;-123.962;2023-04-01T03:04:37;28.70;;;4.70;;
51066;SDS011;37112;45.892;-123.962;2023-04-01T03:06:47;17.50;;;3.70;;
51066;SDS011;37112;45.892;-123.962;2023-04-01T03:08:58;17.30;;;3.80;;
51066;SDS011;37112;45.892;-123.962;2023-04-01T03:11:08;32.00;;;7.80;;
51066;SDS011;37112;45.892;-123.962;2023-04-01T03:13:19;26.80;;;8.00;;
51066;SDS011;37112;45.892;-123.962;2023-04-01T03:15:29;27.10;;;5.30;;
51066;SDS011;37112;45.892;-123.962;2023-04-01T03:17:39;19.60;;;4.70;;
51066;SDS011;37112;45.892;-123.962;2023-04-01T03:19:50;28.30;;;6.80;;
51066;SDS011;37112;45.892;-123.962;2023-04-01T03:22:00;32.80;;;5.10;;
51066;SDS011;37112;45.892;-123.962;2023-04-01T03:24:10;30.50;;;6.00;;
51066;SDS011;37112;45.892;-123.962;2023-04-01T03:26:20;19.40;;;4.60;;
51066;SDS011;37112;45.892;-123.962;2023-04-01T03:28:32;14.90;;;4.70;;
51066;SDS011;37112;45.892;-123.962;2023-04-01T03:30:42;42.10;;;8.30;;
51066;SDS011;37112;45.892;-123.962;2023-04-01T03:32:53;41.20;;;11.70;;
51066;SDS011;37112;45.892;-123.962;2023-04-01T03:35:03;39.00;;;10.30;;
51066;SDS011;37112;45.892;-123.962;2023-04-01T03:39:23;40.20;;;7.40;;
51066;SDS011;37112;45.892;-123.962;2023-04-01T03:41:34;55.60;;;11.70;;
51066;SDS011;37112;45.892;-123.962;2023-04-01T03:43:45;30.80;;;5.80;;
51066;SDS011;37112;45.892;-123.962;2023-04-01T03:45:55;24.10;;;5.50;;
51066;SDS011;37112;45.892;-123.962;2023-04-01T03:48:06;36.60;;;7.40;;
51066;SDS011;37112;45.892;-123.962;2023-04-01T03:50:16;35.50;;;5.70;;
51066;SDS011;37112;45.892;-123.962;2023-04-01T03:52:27;36.30;;;7.70;;
51066;SDS011;37112;45.892;-123.962;2023-04-01T03:54:37;40.00;;;7.50;;
51066;SDS011;37112;45.892;-123.962;2023-04-01T03:56:48;47.50;;;10.10;;
51066;SDS011;37112;45.892;-123.962;2023-04-01T03:58:58;32.00;;;5.70;;
51066;SDS011;37112;45.892;-123.962;2023-04-01T04:01:16;48.70;;;18.00;;
51066;SDS011;37112;45.892;-123.962;2023-04-01T04:03:29;33.50;;;4.40;;
51066;SDS011;37112;45.892;-123.962;2023-04-01T04:05:47;52.90;;;6.80;;
51066;SDS011;37112;45.892;-123.962;2023-04-01T04:07:57;23.30;;;7.70;;
51066;SDS011;37112;45.892;-123.962;2023-04-01T04:10:08;20.50;;;4.50;;
51066;SDS011;37112;45.892;-123.962;2023-04-01T04:12:19;47.90;;;8.90;;
51066;SDS011;37112;45.892;-123.962;2023-04-01T04:14:29;51.60;;;9.20;;
51066;SDS011;37112;45.892;-123.962;2023-04-01T04:16:41;35.80;;;7.00;;
51066;SDS011;37112;45.892;-123.962;2023-04-01T04:18:51;40.10;;;6.30;;
51066;SDS011;37112;45.892;-123.962;2023-04-01T04:21:03;60.60;;;6.90;;
51066;SDS011;37112;45.892;-123.962;2023-04-01T04:23:16;34.10;;;5.10;;
51066;SDS011;37112;45.892;-123.962;2023-04-01T04:25:29;42.70;;;6.90;;
51066;SDS011;37112;45.892;-123.962;2023-04-01T04:27:39;57.70;;;10.80;;
51066;SDS011;37112;45.892;-123.962;2023-04-01T04:29:50;72.80;;;11.90;;
51066;SDS011;37112;45.892;-123.962;2023-04-01T04:32:00;67.80;;;15.40;;
51066;SDS011;37112;45.892;-123.962;2023-04-01T04:34:11;78.90;;;14.70;;
51066;SDS011;37112;45.892;-123.962;2023-04-01T04:36:21;76.80;;;13.80;;
51066;SDS011;37112;45.892;-123.962;2023-04-01T04:38:34;61.90;;;12.50;;
51066;SDS011;37112;45.892;-123.962;2023-04-01T04:40:59;78.20;;;16.70;;
51066;SDS011;37112;45.892;-123.962;2023-04-01T04:43:11;31.20;;;7.50;;
51066;SDS011;37112;45.892;-123.962;2023-04-01T04:45:23;36.30;;;6.40;;
51066;SDS011;37112;45.892;-123.962;2023-04-01T04:47:33;27.80;;;4.80;;
51066;SDS011;37112;45.892;-123.962;2023-04-01T04:49:43;71.20;;;8.00;;
51066;SDS011;37112;45.892;-123.962;2023-04-01T04:51:54;61.70;;;7.70;;
51066;SDS011;37112;45.892;-123.962;2023-04-01T04:54:05;37.70;;;5.10;;
51066;SDS011;37112;45.892;-123.962;2023-04-01T04:56:36;50.80;;;6.50;;
51066;SDS011;37112;45.892;-123.962;2023-04-01T04:58:48;51.50;;;8.00;;
51066;SDS011;37112;45.892;-123.962;2023-04-01T05:01:06;34.20;;;6.60;;
51066;SDS011;37112;45.892;-123.962;2023-04-01T05:03:18;41.40;;;7.10;;
51066;SDS011;37112;45.892;-123.962;2023-04-01T05:05:28;44.20;;;7.80;;
51066;SDS011;37112;45.892;-123.962;2023-04-01T05:07:43;40.50;;;7.30;;
51066;SDS011;37112;45.892;-123.962;2023-04-01T05:09:53;51.30;;;9.80;;
51066;SDS011;37112;45.892;-123.962;2023-04-01T05:12:05;41.60;;;9.00;;
51066;SDS011;37112;45.892;-123.962;2023-04-01T05:14:36;46.40;;;8.40;;
51066;SDS011;37112;45.892;-123.962;2023-04-01T05:16:47;49.80;;;8.50;;
51066;SDS011;37112;45.892;-123.962;2023-04-01T05:18:59;35.50;;;9.10;;
51066;SDS011;37112;45.892;-123.962;2023-04-01T05:21:10;50.30;;;9.60;;
51066;SDS011;37112;45.892;-123.962;2023-04-01T05:23:22;36.70;;;6.00;;
51066;SDS011;37112;45.892;-123.962;2023-04-01T05:25:33;46.30;;;9.60;;
51066;SDS011;37112;45.892;-123.962;2023-04-01T05:27:44;35.80;;;6.10;;
51066;SDS011;37112;45.892;-123.962;2023-04-01T05:29:54;40.00;;;5.30;;
51066;SDS011;37112;45.892;-123.962;2023-04-01T05:32:36;32.10;;;4.30;;
51066;SDS011;37112;45.892;-123.962;2023-04-01T05:34:46;41.40;;;6.00;;
51066;SDS011;37112;45.892;-123.962;2023-04-01T05:36:59;53.60;;;7.10;;
51066;SDS011;37112;45.892;-123.962;2023-04-01T05:39:11;54.50;;;10.10;;
51066;SDS011;37112;45.892;-123.962;2023-04-01T05:41:21;45.60;;;9.00;;
51066;SDS011;37112;45.892;-123.962;2023-04-01T05:43:32;45.50;;;9.10;;
51066;SDS011;37112;45.892;-123.962;2023-04-01T05:46:02;52.30;;;14.50;;
51066;SDS011;37112;45.892;-123.962;2023-04-01T05:48:24;51.40;;;13.10;;
51066;SDS011;37112;45.892;-123.962;2023-04-01T05:50:35;52.20;;;8.20;;
51066;SDS011;37112;45.892;-123.962;2023-04-01T05:54:55;42.10;;;7.50;;
51066;SDS011;37112;45.892;-123.962;2023-04-01T05:57:06;46.00;;;7.20;;
51066;SDS011;37112;45.892;-123.962;2023-04-01T05:59:15;29.70;;;4.40;;
51066;SDS011;37112;45.892;-123.962;2023-04-01T06:01:25;35.10;;;6.60;;
51066;SDS011;37112;45.892;-123.962;2023-04-01T06:03:36;42.90;;;7.90;;
51066;SDS011;37112;45.892;-123.962;2023-04-01T06:05:47;47.70;;;6.40;;
51066;SDS011;37112;45.892;-123.962;2023-04-01T06:07:57;36.60;;;8.70;;
51066;SDS011;37112;45.892;-123.962;2023-04-01T06:10:15;49.50;;;8.10;;
51066;SDS011;37112;45.892;-123.962;2023-04-01T06:15:03;19.60;;;5.20;;
51066;SDS011;37112;45.892;-123.962;2023-04-01T06:17:28;34.40;;;5.90;;
51066;SDS011;37112;45.892;-123.962;2023-04-01T06:19:51;36.20;;;5.50;;
51066;SDS011;37112;45.892;-123.962;2023-04-01T06:24:55;41.30;;;8.10;;
51066;SDS011;37112;45.892;-123.962;2023-04-01T06:27:17;24.50;;;4.40;;
51066;SDS011;37112;45.892;-123.962;2023-04-01T06:29:46;41.20;;;6.10;;
51066;SDS011;37112;45.892;-123.962;2023-04-01T06:32:15;37.70;;;6.60;;
51066;SDS011;37112;45.892;-123.962;2023-04-01T06:34:44;53.80;;;5.90;;
51066;SDS011;37112;45.892;-123.962;2023-04-01T06:37:22;35.90;;;7.20;;
51066;SDS011;37112;45.892;-123.962;2023-04-01T06:39:59;30.00;;;6.40;;
51066;SDS011;37112;45.892;-123.962;2023-04-01T06:42:43;24.10;;;4.40;;
51066;SDS011;37112;45.892;-123.962;2023-04-01T06:45:44;26.40;;;5.00;;
51066;SDS011;37112;45.892;-123.962;2023-04-01T06:48:26;48.70;;;5.60;;
51066;SDS011;37112;45.892;-123.962;2023-04-01T06:51:15;35.70;;;5.70;;
51066;SDS011;37112;45.892;-123.962;2023-04-01T06:53:56;24.40;;;4.30;;
51066;SDS011;37112;45.892;-123.962;2023-04-01T06:56:42;29.20;;;6.20;;
51066;SDS011;37112;45.892;-123.962;2023-04-01T06:59:01;27.70;;;4.40;;
51066;SDS011;37112;45.892;-123.962;2023-04-01T07:01:15;30.30;;;4.40;;
51066;SDS011;37112;45.892;-123.962;2023-04-01T07:03:30;31.00;;;4.90;;
51066;SDS011;37112;45.892;-123.962;2023-04-01T07:05:44;23.00;;;4.80;;
51066;SDS011;37112;45.892;-123.962;2023-04-01T07:07:55;34.30;;;6.90;;
51066;SDS011;37112;45.892;-123.962;2023-04-01T07:10:14;37.10;;;5.50;;
51066;SDS011;37112;45.892;-123.962;2023-04-01T07:12:51;34.00;;;4.90;;
51066;SDS011;37112;45.892;-123.962;2023-04-01T07:15:43;26.10;;;4.50;;
51066;SDS011;37112;45.892;-123.962;2023-04-01T07:18:03;34.60;;;6.40;;
51066;SDS011;37112;45.892;-123.962;2023-04-01T07:20:20;26.50;;;5.90;;
51066;SDS011;37112;45.892;-123.962;2023-04-01T07:22:35;24.80;;;4.90;;
51066;SDS011;37112;45.892;-123.962;2023-04-01T07:25:05;20.70;;;3.50;;
51066;SDS011;37112;45.892;-123.962;2023-04-01T07:27:26;29.50;;;5.10;;
51066;SDS011;37112;45.892;-123.962;2023-04-01T07:29:36;33.70;;;5.50;;
51066;SDS011;37112;45.892;-123.962;2023-04-01T07:34:34;25.90;;;5.00;;
51066;SDS011;37112;45.892;-123.962;2023-04-01T07:36:52;17.50;;;4.50;;
51066;SDS011;37112;45.892;-123.962;2023-04-01T07:39:11;27.30;;;3.80;;
51066;SDS011;37112;45.892;-123.962;2023-04-01T07:41:49;28.40;;;5.30;;
51066;SDS011;37112;45.892;-123.962;2023-04-01T07:44:06;20.70;;;3.80;;
51066;SDS011;37112;45.892;-123.962;2023-04-01T07:46:26;29.20;;;5.00;;
51066;SDS011;37112;45.892;-123.962;2023-04-01T07:48:48;30.80;;;6.30;;
51066;SDS011;37112;45.892;-123.962;2023-04-01T07:51:03;38.50;;;5.30;;
51066;SDS011;37112;45.892;-123.962;2023-04-01T07:53:24;27.40;;;4.10;;
51066;SDS011;37112;45.892;-123.962;2023-04-01T07:55:43;25.00;;;4.50;;
51066;SDS011;37112;45.892;-123.962;2023-04-01T07:57:59;27.70;;;5.30;;
51066;SDS011;37112;45.892;-123.962;2023-04-01T08:00:19;20.30;;;4.20;;
51066;SDS011;37112;45.892;-123.962;2023-04-01T08:02:41;21.50;;;4.10;;
51066;SDS011;37112;45.892;-123.962;2023-04-01T08:05:06;19.60;;;3.50;;
51066;SDS011;37112;45.892;-123.962;2023-04-01T08:07:25;30.30;;;6.00;;
51066;SDS011;37112;45.892;-123.962;2023-04-01T08:10:00;26.70;;;3.90;;
51066;SDS011;37112;45.892;-123.962;2023-04-01T08:12:40;24.70;;;4.70;;
51066;SDS011;37112;45.892;-123.962;2023-04-01T08:15:21;18.70;;;4.00;;
51066;SDS011;37112;45.892;-123.962;2023-04-01T08:17:45;26.00;;;4.40;;
51066;SDS011;37112;45.892;-123.962;2023-04-01T08:20:14;25.00;;;3.30;;
51066;SDS011;37112;45.892;-123.962;2023-04-01T08:22:37;25.20;;;4.10;;
51066;SDS011;37112;45.892;-123.962;2023-04-01T08:25:01;36.70;;;6.50;;
51066;SDS011;37112;45.892;-123.962;2023-04-01T08:27:15;31.40;;;3.60;;
51066;SDS011;37112;45.892;-123.962;2023-04-01T08:29:31;22.10;;;2.80;;
51066;SDS011;37112;45.892;-123.962;2023-04-01T08:31:47;43.50;;;5.00;;
51066;SDS011;37112;45.892;-123.962;2023-04-01T08:34:02;31.60;;;3.70;;
51066;SDS011;37112;45.892;-123.962;2023-04-01T08:36:19;21.40;;;2.40;;
51066;SDS011;37112;45.892;-123.962;2023-04-01T08:38:53;24.80;;;3.50;;
51066;SDS011;37112;45.892;-123.962;2023-04-01T08:41:16;25.10;;;2.70;;
51066;SDS011;37112;45.892;-123.962;2023-04-01T08:44:18;24.60;;;4.20;;
51066;SDS011;37112;45.892;-123.962;2023-04-01T08:47:03;14.20;;;2.60;;
51066;SDS011;37112;45.892;-123.962;2023-04-01T08:49:34;22.40;;;2.90;;
51066;SDS011;37112;45.892;-123.962;2023-04-01T08:52:15;22.10;;;2.40;;
51066;SDS011;37112;45.892;-123.962;2023-04-01T08:54:46;10.60;;;2.20;;
51066;SDS011;37112;45.892;-123.962;2023-04-01T08:57:33;7.60;;;1.80;;
51066;SDS011;37112;45.892;-123.962;2023-04-01T09:00:13;28.60;;;3.20;;
51066;SDS011;37112;45.892;-123.962;2023-04-01T09:02:58;15.70;;;2.60;;
51066;SDS011;37112;45.892;-123.962;2023-04-01T09:05:38;21.60;;;3.30;;
51066;SDS011;37112;45.892;-123.962;2023-04-01T09:08:12;18.70;;;3.20;;
51066;SDS011;37112;45.892;-123.962;2023-04-01T09:10:43;27.10;;;3.90;;
51066;SDS011;37112;45.892;-123.962;2023-04-01T09:13:44;12.70;;;2.80;;
51066;SDS011;37112;45.892;-123.962;2023-04-01T09:16:17;22.60;;;3.40;;
51066;SDS011;37112;45.892;-123.962;2023-04-01T09:18:58;21.30;;;2.50;;
51066;SDS011;37112;45.892;-123.962;2023-04-01T09:21:37;13.60;;;2.20;;
51066;SDS011;37112;45.892;-123.962;2023-04-01T09:24:16;11.90;;;1.70;;
51066;SDS011;37112;45.892;-123.962;2023-04-01T09:26:52;14.00;;;2.60;;
51066;SDS011;37112;45.892;-123.962;2023-04-01T09:29:14;16.90;;;3.20;;
51066;SDS011;37112;45.892;-123.962;2023-04-01T09:31:40;19.90;;;3.00;;
51066;SDS011;37112;45.892;-123.962;2023-04-01T09:37:16;18.80;;;2.50;;
51066;SDS011;37112;45.892;-123.962;2023-04-01T09:39:40;32.00;;;2.90;;
51066;SDS011;37112;45.892;-123.962;2023-04-01T09:42:03;13.90;;;2.70;;
51066;SDS011;37112;45.892;-123.962;2023-04-01T09:44:41;23.80;;;3.50;;
51066;SDS011;37112;45.892;-123.962;2023-04-01T09:47:04;15.10;;;2.30;;
51066;SDS011;37112;45.892;-123.962;2023-04-01T09:49:38;26.10;;;2.30;;
51066;SDS011;37112;45.892;-123.962;2023-04-01T09:52:07;22.10;;;2.40;;
51066;SDS011;37112;45.892;-123.962;2023-04-01T10:05:45;16.70;;;4.30;;
51066;SDS011;37112;45.892;-123.962;2023-04-01T10:11:25;18.20;;;2.40;;
51066;SDS011;37112;45.892;-123.962;2023-04-01T10:14:10;17.80;;;2.70;;
51066;SDS011;37112;45.892;-123.962;2023-04-01T10:16:37;16.60;;;2.00;;
51066;SDS011;37112;45.892;-123.962;2023-04-01T10:22:05;31.80;;;4.40;;
51066;SDS011;37112;45.892;-123.962;2023-04-01T10:24:47;22.00;;;3.70;;
51066;SDS011;37112;45.892;-123.962;2023-04-01T10:27:23;36.20;;;4.40;;
51066;SDS011;37112;45.892;-123.962;2023-04-01T10:33:27;11.80;;;2.40;;
51066;SDS011;37112;45.892;-123.962;2023-04-01T10:36:16;20.70;;;3.70;;
51066;SDS011;37112;45.892;-123.962;2023-04-01T10:42:00;18.60;;;3.00;;
51066;SDS011;37112;45.892;-123.962;2023-04-01T10:45:06;22.10;;;2.80;;
51066;SDS011;37112;45.892;-123.962;2023-04-01T10:47:50;13.70;;;2.10;;
51066;SDS011;37112;45.892;-123.962;2023-04-01T10:50:33;14.40;;;1.60;;
51066;SDS011;37112;45.892;-123.962;2023-04-01T10:53:03;16.20;;;1.40;;
51066;SDS011;37112;45.892;-123.962;2023-04-01T11:05:33;19.10;;;1.70;;
51066;SDS011;37112;45.892;-123.962;2023-04-01T11:08:13;15.70;;;2.30;;
51066;SDS011;37112;45.892;-123.962;2023-04-01T11:16:26;9.60;;;1.50;;
51066;SDS011;37112;45.892;-123.962;2023-04-01T11:21:47;10.80;;;2.30;;
51066;SDS011;37112;45.892;-123.962;2023-04-01T11:24:29;23.30;;;3.10;;
51066;SDS011;37112;45.892;-123.962;2023-04-01T11:27:28;14.70;;;2.10;;
51066;SDS011;37112;45.892;-123.962;2023-04-01T11:30:00;11.60;;;3.30;;
51066;SDS011;37112;45.892;-123.962;2023-04-01T11:32:23;13.90;;;2.20;;
51066;SDS011;37112;45.892;-123.962;2023-04-01T11:34:47;12.90;;;1.50;;
51066;SDS011;37112;45.892;-123.962;2023-04-01T11:37:05;5.40;;;1.10;;
51066;SDS011;37112;45.892;-123.962;2023-04-01T11:39:57;11.70;;;2.50;;
51066;SDS011;37112;45.892;-123.962;2023-04-01T11:42:38;6.80;;;1.30;;
51066;SDS011;37112;45.892;-123.962;2023-04-01T11:45:35;11.70;;;2.80;;
51066;SDS011;37112;45.892;-123.962;2023-04-01T11:47:58;18.50;;;2.30;;
51066;SDS011;37112;45.892;-123.962;2023-04-01T11:50:23;15.90;;;1.60;;
51066;SDS011;37112;45.892;-123.962;2023-04-01T11:55:13;10.30;;;1.60;;
51066;SDS011;37112;45.892;-123.962;2023-04-01T11:57:46;18.30;;;2.60;;
51066;SDS011;37112;45.892;-123.962;2023-04-01T12:00:18;12.70;;;1.70;;
51066;SDS011;37112;45.892;-123.962;2023-04-01T12:02:47;14.50;;;1.90;;
51066;SDS011;37112;45.892;-123.962;2023-04-01T12:05:17;21.80;;;2.60;;
51066;SDS011;37112;45.892;-123.962;2023-04-01T12:10:28;7.40;;;1.60;;
51066;SDS011;37112;45.892;-123.962;2023-04-01T12:12:48;16.70;;;2.70;;
51066;SDS011;37112;45.892;-123.962;2023-04-01T12:15:13;13.70;;;1.90;;
51066;SDS011;37112;45.892;-123.962;2023-04-01T12:17:32;3.70;;;1.00;;
51066;SDS011;37112;45.892;-123.962;2023-04-01T12:19:53;13.30;;;2.00;;
51066;SDS011;37112;45.892;-123.962;2023-04-01T12:22:16;11.30;;;2.10;;
51066;SDS011;37112;45.892;-123.962;2023-04-01T12:24:47;16.80;;;2.70;;
51066;SDS011;37112;45.892;-123.962;2023-04-01T12:30:15;9.70;;;1.90;;
51066;SDS011;37112;45.892;-123.962;2023-04-01T12:32:39;5.00;;;1.10;;
51066;SDS011;37112;45.892;-123.962;2023-04-01T12:34:56;5.20;;;1.30;;
51066;SDS011;37112;45.892;-123.962;2023-04-01T12:37:19;16.10;;;2.00;;
51066;SDS011;37112;45.892;-123.962;2023-04-01T12:42:30;21.50;;;3.00;;
51066;SDS011;37112;45.892;-123.962;2023-04-01T12:44:58;16.50;;;2.20;;
51066;SDS011;37112;45.892;-123.962;2023-04-01T12:47:28;11.20;;;3.50;;
51066;SDS011;37112;45.892;-123.962;2023-04-01T12:49:57;9.40;;;1.60;;
51066;SDS011;37112;45.892;-123.962;2023-04-01T12:52:32;31.90;;;3.10;;
51066;SDS011;37112;45.892;-123.962;2023-04-01T12:57:48;13.90;;;2.00;;
51066;SDS011;37112;45.892;-123.962;2023-04-01T13:00:27;11.70;;;2.00;;
51066;SDS011;37112;45.892;-123.962;2023-04-01T13:02:53;16.60;;;3.90;;
51066;SDS011;37112;45.892;-123.962;2023-04-01T13:07:51;20.20;;;3.10;;
51066;SDS011;37112;45.892;-123.962;2023-04-01T13:10:10;16.20;;;1.70;;
51066;SDS011;37112;45.892;-123.962;2023-04-01T13:12:34;16.40;;;3.10;;
51066;SDS011;37112;45.892;-123.962;2023-04-01T13:15:14;25.20;;;3.20;;
51066;SDS011;37112;45.892;-123.962;2023-04-01T13:17:36;5.90;;;2.60;;
51066;SDS011;37112;45.892;-123.962;2023-04-01T13:19:57;15.40;;;3.30;;
51066;SDS011;37112;45.892;-123.962;2023-04-01T13:22:15;17.40;;;2.10;;
51066;SDS011;37112;45.892;-123.962;2023-04-01T13:24:35;29.50;;;3.70;;
51066;SDS011;37112;45.892;-123.962;2023-04-01T13:26:53;28.30;;;3.50;;
51066;SDS011;37112;45.892;-123.962;2023-04-01T13:29:12;26.90;;;4.00;;
51066;SDS011;37112;45.892;-123.962;2023-04-01T13:31:29;17.60;;;2.20;;
51066;SDS011;37112;45.892;-123.962;2023-04-01T13:33:56;22.80;;;2.30;;
51066;SDS011;37112;45.892;-123.962;2023-04-01T13:36:16;13.90;;;2.90;;
51066;SDS011;37112;45.892;-123.962;2023-04-01T13:38:46;7.40;;;1.20;;
51066;SDS011;37112;45.892;-123.962;2023-04-01T13:41:08;14.20;;;2.80;;
51066;SDS011;37112;45.892;-123.962;2023-04-01T13:43:29;15.80;;;3.70;;
51066;SDS011;37112;45.892;-123.962;2023-04-01T13:45:50;10.70;;;3.40;;
51066;SDS011;37112;45.892;-123.962;2023-04-01T13:53:42;6.10;;;1.30;;
51066;SDS011;37112;45.892;-123.962;2023-04-01T13:56:16;11.70;;;1.50;;
51066;SDS011;37112;45.892;-123.962;2023-04-01T13:58:45;8.00;;;2.00;;
51066;SDS011;37112;45.892;-123.962;2023-04-01T14:01:23;11.60;;;1.70;;
51066;SDS011;37112;45.892;-123.962;2023-04-01T14:03:45;8.00;;;2.70;;
51066;SDS011;37112;45.892;-123.962;2023-04-01T14:06:17;9.60;;;1.50;;
51066;SDS011;37112;45.892;-123.962;2023-04-01T14:08:39;9.10;;;1.30;;
51066;SDS011;37112;45.892;-123.962;2023-04-01T14:11:02;11.60;;;1.20;;
51066;SDS011;37112;45.892;-123.962;2023-04-01T14:13:23;5.90;;;1.50;;
51066;SDS011;37112;45.892;-123.962;2023-04-01T14:15:45;6.50;;;1.10;;
51066;SDS011;37112;45.892;-123.962;2023-04-01T14:18:16;6.10;;;0.90;;
51066;SDS011;37112;45.892;-123.962;2023-04-01T14:20:42;9.90;;;1.20;;
51066;SDS011;37112;45.892;-123.962;2023-04-01T14:23:07;3.60;;;1.20;;
51066;SDS011;37112;45.892;-123.962;2023-04-01T14:25:46;7.30;;;1.10;;
51066;SDS011;37112;45.892;-123.962;2023-04-01T14:28:13;7.90;;;1.20;;
51066;SDS011;37112;45.892;-123.962;2023-04-01T14:30:47;7.20;;;1.00;;
51066;SDS011;37112;45.892;-123.962;2023-04-01T14:33:23;21.10;;;2.20;;
51066;SDS011;37112;45.892;-123.962;2023-04-01T14:35:44;14.00;;;2.60;;
51066;SDS011;37112;45.892;-123.962;2023-04-01T14:38:17;18.00;;;1.90;;
51066;SDS011;37112;45.892;-123.962;2023-04-01T14:40:51;23.00;;;2.00;;
51066;SDS011;37112;45.892;-123.962;2023-04-01T14:43:13;11.80;;;2.50;;
51066;SDS011;37112;45.892;-123.962;2023-04-01T14:45:53;14.70;;;1.30;;
51066;SDS011;37112;45.892;-123.962;2023-04-01T14:48:27;20.80;;;1.80;;